Terminal Aerodrome Forecast
Issued by NWS Brownsville, TX

Home | Current Version | Previous Version | Text Only | Print | Product List | Glossary On
Versions: 1 2 3 4 5 6 7 8 9 10 11 12 13 14 15 16 17 18 19 20 21 22 23 24 25 26 27 28 29 30 31 32 33 34 35
000
FTUS44 KBRO 281120
TAFMFE
TAF
KMFE 281120Z 2812/2912 11011KT P6SM SCT008 SCT013 BKN020
      TEMPO 2812/2814 5SM BR BKN008 BKN013 OVC019
     FM281500 15015KT P6SM SCT020 BKN050
     FM281800 14018G25KT P6SM SCT050
     FM290300 13010KT P6SM SCT250=

USA.gov is the U.S. government's official web portal to all federal, state and local government web resources and services.